Aérodrome :
LOGIN :

S'inscrire | Disclaimer

   EN    FR    IT 

 










Légende :    VFR   VFR Marginal   IFR   IFR Intensif   IFR Très Intensif
Visi : 
Plafond : 
>= 8 km
>= 3000ft
5 à 8 km
1000 à 3000 ft
1500m à 5 km
500 à 1000 ft
800 à 1500m
200 à 500 ft
< 800m
< 200 ft
Symboles :   Orages  Brouillard  Fortes neiges  Fortes précipitations  Vent > 20 kt
SIGMETs :   Divers  Orages  Givrage  Turbulence  Onde Orograph.  Cendres Volcan.






- Altitude de l'aérodrome : 82 ft
- Code IATA : QIE


LFMI - Istres

DERNIER METAR :
  • 170230Z AUTO 11008KT 9999 OVC014 12/10 Q1025 TEMPO RA

METARs EXPIRÉS :
  • 170200Z AUTO 10006KT 9999 BKN016 BKN034 OVC047 12/10 Q1026 TEMPO RA OVC010
  • 170130Z AUTO 10008KT 9999 BKN017 BKN037 OVC047 12/10 Q1026 TEMPO RA OVC010
  • 170100Z AUTO 12009KT 9999 BKN017 BKN025 OVC044 13/10 Q1026 TEMPO RA OVC010
  • 170030Z AUTO 11008KT 9999 BKN022 BKN028 BKN036 12/10 Q1026 TEMPO RA OVC010

TAF TAF LFMI
Valide du 17 à 03h jusqu'au 18 à 03h UTC


170200Z 1703/1803 11010KT 9999 BKN020 OVC030
TEMPO 1703/1716 RA OVC010
BECMG 1716/1718 29010KT
BECMG 1718/1720 CAVOK



MET'MAP, la Météo Aéronautique d'un coup d'oeil ! - Copyright ORBIFLY Décembre 2007 - Disclaimer

ORBIFLY MET'MAP TEAM :

Programmation & Développement : Alexandra Zaïnal
Sur une idée originale de : Baudouin d'Aumeries
Assistance à la programmation : Marc-Olivier Méhu
Soutien technique & logistique : Manuel Goepfert

Contact : metmap@orbifly.com




SOURCES & CREDITS :

   NOAA